sensor_id;sensor_type;location;lat;lon;timestamp;pressure;altitude;pressure_sealevel;temperature;humidity
36014;BME280;22275;43.208;27.620;2023-05-03T00:00:50;101982.84;;;20.46;100.00
36014;BME280;22275;43.208;27.620;2023-05-03T00:03:18;101977.72;;;20.43;100.00
36014;BME280;22275;43.208;27.620;2023-05-03T00:05:47;101977.63;;;20.45;100.00
36014;BME280;22275;43.208;27.620;2023-05-03T00:08:16;101972.50;;;20.53;100.00
36014;BME280;22275;43.208;27.620;2023-05-03T00:10:43;101971.59;;;20.63;100.00
36014;BME280;22275;43.208;27.620;2023-05-03T00:13:12;101970.44;;;20.45;100.00
36014;BME280;22275;43.208;27.620;2023-05-03T00:15:40;101965.41;;;20.52;100.00
36014;BME280;22275;43.208;27.620;2023-05-03T00:18:07;101965.09;;;20.45;100.00
36014;BME280;22275;43.208;27.620;2023-05-03T00:20:34;101970.78;;;20.52;100.00
36014;BME280;22275;43.208;27.620;2023-05-03T00:23:02;101966.44;;;20.40;100.00
36014;BME280;22275;43.208;27.620;2023-05-03T00:25:29;101961.81;;;20.31;100.00
36014;BME280;22275;43.208;27.620;2023-05-03T00:27:57;101962.13;;;20.59;100.00
36014;BME280;22275;43.208;27.620;2023-05-03T00:30:25;101951.97;;;20.31;100.00
36014;BME280;22275;43.208;27.620;2023-05-03T00:32:54;101965.69;;;20.49;100.00
36014;BME280;22275;43.208;27.620;2023-05-03T00:35:21;101953.38;;;20.46;100.00
36014;BME280;22275;43.208;27.620;2023-05-03T00:37:48;101949.88;;;20.46;100.00
36014;BME280;22275;43.208;27.620;2023-05-03T00:40:17;101954.50;;;20.33;100.00
36014;BME280;22275;43.208;27.620;2023-05-03T00:42:44;101955.00;;;20.27;100.00
36014;BME280;22275;43.208;27.620;2023-05-03T00:45:12;101952.59;;;20.35;100.00
36014;BME280;22275;43.208;27.620;2023-05-03T00:47:40;101951.22;;;20.18;100.00
36014;BME280;22275;43.208;27.620;2023-05-03T00:50:08;101954.75;;;19.85;100.00
36014;BME280;22275;43.208;27.620;2023-05-03T00:52:37;101950.50;;;19.72;100.00
36014;BME280;22275;43.208;27.620;2023-05-03T00:55:05;101952.72;;;19.78;100.00
36014;BME280;22275;43.208;27.620;2023-05-03T00:57:33;101947.69;;;19.51;100.00
36014;BME280;22275;43.208;27.620;2023-05-03T01:00:00;101941.47;;;19.50;100.00
36014;BME280;22275;43.208;27.620;2023-05-03T01:02:28;101939.81;;;19.26;100.00
36014;BME280;22275;43.208;27.620;2023-05-03T01:04:57;101945.13;;;19.49;100.00
36014;BME280;22275;43.208;27.620;2023-05-03T01:07:32;101934.06;;;19.43;100.00
36014;BME280;22275;43.208;27.620;2023-05-03T01:10:09;101937.63;;;19.20;100.00
36014;BME280;22275;43.208;27.620;2023-05-03T01:12:49;101944.31;;;19.25;100.00
36014;BME280;22275;43.208;27.620;2023-05-03T01:15:29;101941.59;;;19.14;100.00
36014;BME280;22275;43.208;27.620;2023-05-03T01:18:05;101949.03;;;19.22;100.00
36014;BME280;22275;43.208;27.620;2023-05-03T01:20:36;101950.13;;;19.54;100.00
36014;BME280;22275;43.208;27.620;2023-05-03T01:23:09;101956.97;;;20.02;100.00
36014;BME280;22275;43.208;27.620;2023-05-03T01:25:39;101961.56;;;20.12;100.00
36014;BME280;22275;43.208;27.620;2023-05-03T01:28:07;101953.81;;;19.86;100.00
36014;BME280;22275;43.208;27.620;2023-05-03T01:30:35;101955.38;;;19.32;100.00
36014;BME280;22275;43.208;27.620;2023-05-03T01:33:10;101947.44;;;19.43;100.00
36014;BME280;22275;43.208;27.620;2023-05-03T01:35:42;101951.84;;;19.77;100.00
36014;BME280;22275;43.208;27.620;2023-05-03T01:38:11;101948.69;;;19.94;100.00
36014;BME280;22275;43.208;27.620;2023-05-03T01:40:43;101948.47;;;19.86;100.00
36014;BME280;22275;43.208;27.620;2023-05-03T01:43:15;101947.47;;;19.87;100.00
36014;BME280;22275;43.208;27.620;2023-05-03T01:45:43;101942.34;;;19.73;100.00
36014;BME280;22275;43.208;27.620;2023-05-03T01:48:15;101942.00;;;19.78;100.00
36014;BME280;22275;43.208;27.620;2023-05-03T01:50:43;101948.41;;;19.75;100.00
36014;BME280;22275;43.208;27.620;2023-05-03T01:53:12;101957.66;;;19.71;100.00
36014;BME280;22275;43.208;27.620;2023-05-03T01:55:42;101961.31;;;19.81;100.00
36014;BME280;22275;43.208;27.620;2023-05-03T01:58:09;101955.97;;;19.70;100.00
36014;BME280;22275;43.208;27.620;2023-05-03T02:00:37;101954.75;;;19.63;100.00
36014;BME280;22275;43.208;27.620;2023-05-03T02:03:06;101957.19;;;19.66;100.00
36014;BME280;22275;43.208;27.620;2023-05-03T02:05:34;101943.28;;;19.50;100.00
36014;BME280;22275;43.208;27.620;2023-05-03T02:08:01;101945.03;;;19.73;100.00
36014;BME280;22275;43.208;27.620;2023-05-03T02:10:29;101951.59;;;19.80;100.00
36014;BME280;22275;43.208;27.620;2023-05-03T02:13:02;101950.38;;;19.73;100.00
36014;BME280;22275;43.208;27.620;2023-05-03T02:15:29;101954.03;;;19.72;100.00
36014;BME280;22275;43.208;27.620;2023-05-03T02:17:57;101957.91;;;19.79;100.00
36014;BME280;22275;43.208;27.620;2023-05-03T02:20:27;101946.38;;;19.79;100.00
36014;BME280;22275;43.208;27.620;2023-05-03T02:22:57;101950.13;;;19.65;100.00
36014;BME280;22275;43.208;27.620;2023-05-03T02:25:26;101961.53;;;19.67;100.00
36014;BME280;22275;43.208;27.620;2023-05-03T02:27:54;101958.75;;;19.69;100.00
36014;BME280;22275;43.208;27.620;2023-05-03T02:30:23;101962.31;;;19.80;100.00
36014;BME280;22275;43.208;27.620;2023-05-03T02:32:51;101956.97;;;19.80;100.00
36014;BME280;22275;43.208;27.620;2023-05-03T02:35:18;101955.72;;;19.73;100.00
36014;BME280;22275;43.208;27.620;2023-05-03T02:37:46;101951.72;;;19.33;100.00
36014;BME280;22275;43.208;27.620;2023-05-03T02:40:13;101962.88;;;18.68;100.00
36014;BME280;22275;43.208;27.620;2023-05-03T02:42:41;101977.53;;;17.11;100.00
36014;BME280;22275;43.208;27.620;2023-05-03T02:45:10;101964.88;;;17.15;100.00
36014;BME280;22275;43.208;27.620;2023-05-03T02:47:38;101976.16;;;17.06;100.00
36014;BME280;22275;43.208;27.620;2023-05-03T02:50:07;101972.13;;;17.13;100.00
36014;BME280;22275;43.208;27.620;2023-05-03T02:52:34;101971.06;;;17.55;100.00
36014;BME280;22275;43.208;27.620;2023-05-03T02:55:02;101966.78;;;18.03;100.00
36014;BME280;22275;43.208;27.620;2023-05-03T02:57:31;101964.88;;;17.92;100.00
36014;BME280;22275;43.208;27.620;2023-05-03T02:59:58;101962.31;;;17.78;100.00
36014;BME280;22275;43.208;27.620;2023-05-03T03:02:26;101957.84;;;17.78;100.00
36014;BME280;22275;43.208;27.620;2023-05-03T03:04:55;101959.31;;;18.08;100.00
36014;BME280;22275;43.208;27.620;2023-05-03T03:07:22;101965.09;;;17.89;100.00
36014;BME280;22275;43.208;27.620;2023-05-03T03:09:49;101971.78;;;17.57;100.00
36014;BME280;22275;43.208;27.620;2023-05-03T03:12:18;101974.69;;;17.79;100.00
36014;BME280;22275;43.208;27.620;2023-05-03T03:14:45;101972.97;;;17.65;100.00
36014;BME280;22275;43.208;27.620;2023-05-03T03:17:12;101973.19;;;17.88;100.00
36014;BME280;22275;43.208;27.620;2023-05-03T03:19:39;101976.56;;;18.15;100.00
36014;BME280;22275;43.208;27.620;2023-05-03T03:22:08;101973.31;;;17.99;100.00
36014;BME280;22275;43.208;27.620;2023-05-03T03:24:36;101973.63;;;17.82;100.00
36014;BME280;22275;43.208;27.620;2023-05-03T03:27:03;101980.06;;;17.40;100.00
36014;BME280;22275;43.208;27.620;2023-05-03T03:29:31;101993.78;;;17.21;100.00
36014;BME280;22275;43.208;27.620;2023-05-03T03:31:58;101984.94;;;17.72;100.00
36014;BME280;22275;43.208;27.620;2023-05-03T03:34:26;101992.44;;;17.41;100.00
36014;BME280;22275;43.208;27.620;2023-05-03T03:36:54;101984.81;;;17.87;100.00
36014;BME280;22275;43.208;27.620;2023-05-03T03:39:23;101976.81;;;17.61;100.00
36014;BME280;22275;43.208;27.620;2023-05-03T03:41:52;101975.63;;;17.65;100.00
36014;BME280;22275;43.208;27.620;2023-05-03T03:44:20;101983.66;;;17.78;100.00
36014;BME280;22275;43.208;27.620;2023-05-03T03:46:47;101995.38;;;18.13;100.00
36014;BME280;22275;43.208;27.620;2023-05-03T03:49:14;102007.28;;;16.50;100.00
36014;BME280;22275;43.208;27.620;2023-05-03T03:51:41;101999.91;;;16.55;100.00
36014;BME280;22275;43.208;27.620;2023-05-03T03:54:09;102009.22;;;16.48;100.00
36014;BME280;22275;43.208;27.620;2023-05-03T03:56:38;102010.16;;;16.61;100.00
36014;BME280;22275;43.208;27.620;2023-05-03T03:59:05;102002.19;;;17.67;100.00
36014;BME280;22275;43.208;27.620;2023-05-03T04:01:32;101998.13;;;18.12;100.00
36014;BME280;22275;43.208;27.620;2023-05-03T04:04:00;102002.63;;;17.73;100.00
36014;BME280;22275;43.208;27.620;2023-05-03T04:06:27;102000.06;;;17.85;100.00
36014;BME280;22275;43.208;27.620;2023-05-03T04:08:55;101994.81;;;18.08;100.00
36014;BME280;22275;43.208;27.620;2023-05-03T04:11:23;101999.84;;;18.13;100.00
36014;BME280;22275;43.208;27.620;2023-05-03T04:13:52;102001.00;;;18.70;100.00
36014;BME280;22275;43.208;27.620;2023-05-03T04:16:20;101990.31;;;18.70;100.00
36014;BME280;22275;43.208;27.620;2023-05-03T04:18:48;102005.94;;;17.90;100.00
36014;BME280;22275;43.208;27.620;2023-05-03T04:21:15;102015.28;;;17.18;100.00
36014;BME280;22275;43.208;27.620;2023-05-03T04:23:44;102015.81;;;17.23;100.00
36014;BME280;22275;43.208;27.620;2023-05-03T04:26:12;102003.97;;;18.29;100.00
36014;BME280;22275;43.208;27.620;2023-05-03T04:28:40;102008.38;;;18.90;100.00
36014;BME280;22275;43.208;27.620;2023-05-03T04:31:09;102007.50;;;18.17;100.00
36014;BME280;22275;43.208;27.620;2023-05-03T04:33:37;102013.63;;;17.82;100.00
36014;BME280;22275;43.208;27.620;2023-05-03T04:36:07;102014.16;;;17.99;100.00
36014;BME280;22275;43.208;27.620;2023-05-03T04:38:35;102012.75;;;18.19;100.00
36014;BME280;22275;43.208;27.620;2023-05-03T04:41:03;102020.06;;;18.53;100.00
36014;BME280;22275;43.208;27.620;2023-05-03T04:43:31;102020.28;;;18.25;100.00
36014;BME280;22275;43.208;27.620;2023-05-03T04:45:59;102024.16;;;17.96;100.00
36014;BME280;22275;43.208;27.620;2023-05-03T04:48:28;102030.00;;;17.63;100.00
36014;BME280;22275;43.208;27.620;2023-05-03T04:50:56;102026.16;;;17.79;100.00
36014;BME280;22275;43.208;27.620;2023-05-03T04:53:24;102032.53;;;18.40;100.00
36014;BME280;22275;43.208;27.620;2023-05-03T04:55:52;102026.50;;;18.13;100.00
36014;BME280;22275;43.208;27.620;2023-05-03T04:58:19;102030.03;;;18.13;100.00
36014;BME280;22275;43.208;27.620;2023-05-03T05:00:46;102030.66;;;18.17;100.00
36014;BME280;22275;43.208;27.620;2023-05-03T05:03:14;102033.44;;;18.77;100.00
36014;BME280;22275;43.208;27.620;2023-05-03T05:05:43;102024.91;;;19.89;100.00
36014;BME280;22275;43.208;27.620;2023-05-03T05:08:11;102034.78;;;20.66;100.00
36014;BME280;22275;43.208;27.620;2023-05-03T05:10:40;102023.16;;;21.51;100.00
36014;BME280;22275;43.208;27.620;2023-05-03T05:13:08;102025.28;;;21.48;100.00
36014;BME280;22275;43.208;27.620;2023-05-03T05:15:36;102028.41;;;21.53;100.00
36014;BME280;22275;43.208;27.620;2023-05-03T05:18:04;102024.72;;;21.74;100.00
36014;BME280;22275;43.208;27.620;2023-05-03T05:20:31;102021.91;;;22.57;100.00
36014;BME280;22275;43.208;27.620;2023-05-03T05:23:00;102014.47;;;22.80;100.00
36014;BME280;22275;43.208;27.620;2023-05-03T05:25:28;102020.72;;;22.80;100.00
36014;BME280;22275;43.208;27.620;2023-05-03T05:27:55;102021.13;;;22.76;100.00
36014;BME280;22275;43.208;27.620;2023-05-03T05:30:23;102024.31;;;21.90;100.00
36014;BME280;22275;43.208;27.620;2023-05-03T05:32:50;102032.47;;;21.15;100.00
36014;BME280;22275;43.208;27.620;2023-05-03T05:35:17;102029.44;;;21.09;100.00
36014;BME280;22275;43.208;27.620;2023-05-03T05:37:44;102033.06;;;21.51;100.00
36014;BME280;22275;43.208;27.620;2023-05-03T05:40:14;102021.63;;;22.20;100.00
36014;BME280;22275;43.208;27.620;2023-05-03T05:42:41;102041.63;;;21.45;100.00
36014;BME280;22275;43.208;27.620;2023-05-03T05:45:11;102031.00;;;22.05;100.00
36014;BME280;22275;43.208;27.620;2023-05-03T05:47:38;102035.94;;;21.80;100.00
36014;BME280;22275;43.208;27.620;2023-05-03T05:50:06;102029.53;;;21.71;100.00
36014;BME280;22275;43.208;27.620;2023-05-03T05:52:34;102039.44;;;21.39;100.00
36014;BME280;22275;43.208;27.620;2023-05-03T05:55:03;102035.59;;;21.73;100.00
36014;BME280;22275;43.208;27.620;2023-05-03T05:57:33;102028.34;;;21.85;100.00
36014;BME280;22275;43.208;27.620;2023-05-03T06:00:01;102033.97;;;21.82;100.00
36014;BME280;22275;43.208;27.620;2023-05-03T06:02:33;102036.53;;;21.62;100.00
36014;BME280;22275;43.208;27.620;2023-05-03T06:05:01;102033.72;;;22.45;100.00
36014;BME280;22275;43.208;27.620;2023-05-03T06:07:28;102036.66;;;22.32;100.00
36014;BME280;22275;43.208;27.620;2023-05-03T06:09:55;102032.03;;;22.44;100.00
36014;BME280;22275;43.208;27.620;2023-05-03T06:12:23;102034.06;;;22.21;100.00
36014;BME280;22275;43.208;27.620;2023-05-03T06:14:52;102031.50;;;22.20;100.00
36014;BME280;22275;43.208;27.620;2023-05-03T06:17:19;102037.34;;;22.25;100.00
36014;BME280;22275;43.208;27.620;2023-05-03T06:19:47;102032.56;;;22.68;100.00
36014;BME280;22275;43.208;27.620;2023-05-03T06:22:15;102024.31;;;22.60;100.00
36014;BME280;22275;43.208;27.620;2023-05-03T06:24:44;102029.97;;;21.97;100.00
36014;BME280;22275;43.208;27.620;2023-05-03T06:27:11;102025.34;;;22.69;100.00
36014;BME280;22275;43.208;27.620;2023-05-03T06:42:56;101992.41;;;22.76;100.00
36014;BME280;22275;43.208;27.620;2023-05-03T06:45:23;101998.84;;;22.55;100.00
36014;BME280;22275;43.208;27.620;2023-05-03T06:47:50;101994.53;;;22.73;100.00
36014;BME280;22275;43.208;27.620;2023-05-03T06:50:18;102001.53;;;22.55;100.00
36014;BME280;22275;43.208;27.620;2023-05-03T06:52:46;102003.53;;;22.53;100.00
36014;BME280;22275;43.208;27.620;2023-05-03T06:55:14;102006.91;;;22.55;100.00
36014;BME280;22275;43.208;27.620;2023-05-03T06:57:41;102006.88;;;22.45;100.00
36014;BME280;22275;43.208;27.620;2023-05-03T07:00:11;102026.47;;;22.26;100.00
36014;BME280;22275;43.208;27.620;2023-05-03T07:02:39;102017.19;;;22.10;100.00
36014;BME280;22275;43.208;27.620;2023-05-03T07:05:07;102029.38;;;21.72;100.00
36014;BME280;22275;43.208;27.620;2023-05-03T07:07:34;102033.38;;;22.29;100.00
36014;BME280;22275;43.208;27.620;2023-05-03T07:10:03;102029.19;;;22.76;100.00
36014;BME280;22275;43.208;27.620;2023-05-03T13:02:04;101921.81;;;24.42;84.69
36014;BME280;22275;43.208;27.620;2023-05-03T13:04:31;101914.91;;;24.13;85.97
36014;BME280;22275;43.208;27.620;2023-05-03T13:06:59;101911.69;;;24.54;86.70
36014;BME280;22275;43.208;27.620;2023-05-03T13:09:26;101905.06;;;23.57;89.80
36014;BME280;22275;43.208;27.620;2023-05-03T13:11:53;101895.59;;;23.90;91.79
36014;BME280;22275;43.208;27.620;2023-05-03T13:14:20;101908.41;;;24.15;91.03
36014;BME280;22275;43.208;27.620;2023-05-03T13:16:48;101881.00;;;23.56;90.92
36014;BME280;22275;43.208;27.620;2023-05-03T13:19:20;101894.00;;;23.97;90.81
36014;BME280;22275;43.208;27.620;2023-05-03T13:21:47;101875.25;;;23.22;90.19
36014;BME280;22275;43.208;27.620;2023-05-03T13:24:14;101888.00;;;23.76;90.90
36014;BME280;22275;43.208;27.620;2023-05-03T13:26:42;101878.44;;;23.64;87.72
36014;BME280;22275;43.208;27.620;2023-05-03T13:29:09;101883.88;;;23.44;90.88
36014;BME280;22275;43.208;27.620;2023-05-03T13:31:36;101851.41;;;23.00;90.69
36014;BME280;22275;43.208;27.620;2023-05-03T13:34:03;101859.25;;;23.49;90.63
36014;BME280;22275;43.208;27.620;2023-05-03T13:36:32;101871.66;;;23.60;90.98
36014;BME280;22275;43.208;27.620;2023-05-03T13:39:00;101867.16;;;23.51;89.94
36014;BME280;22275;43.208;27.620;2023-05-03T13:41:27;101849.03;;;24.07;92.45
36014;BME280;22275;43.208;27.620;2023-05-03T13:43:54;101869.59;;;23.81;95.70
36014;BME280;22275;43.208;27.620;2023-05-03T13:46:21;101858.13;;;23.32;100.00
36014;BME280;22275;43.208;27.620;2023-05-03T13:48:49;101868.81;;;23.61;100.00
36014;BME280;22275;43.208;27.620;2023-05-03T13:51:17;101862.03;;;23.01;100.00
36014;BME280;22275;43.208;27.620;2023-05-03T13:53:46;101877.13;;;23.12;100.00
36014;BME280;22275;43.208;27.620;2023-05-03T13:56:13;101867.28;;;22.83;100.00
36014;BME280;22275;43.208;27.620;2023-05-03T13:58:42;101889.06;;;22.90;100.00
36014;BME280;22275;43.208;27.620;2023-05-03T14:01:09;101887.03;;;22.63;100.00
36014;BME280;22275;43.208;27.620;2023-05-03T14:03:38;101886.75;;;22.57;100.00
36014;BME280;22275;43.208;27.620;2023-05-03T14:06:05;101870.88;;;22.15;100.00
36014;BME280;22275;43.208;27.620;2023-05-03T14:08:34;101883.09;;;22.58;100.00
36014;BME280;22275;43.208;27.620;2023-05-03T14:11:03;101880.84;;;22.82;100.00
36014;BME280;22275;43.208;27.620;2023-05-03T14:13:30;101883.72;;;22.02;100.00
36014;BME280;22275;43.208;27.620;2023-05-03T14:15:57;101875.97;;;22.28;100.00
36014;BME280;22275;43.208;27.620;2023-05-03T14:18:25;101868.84;;;21.98;100.00
36014;BME280;22275;43.208;27.620;2023-05-03T14:20:52;101873.69;;;22.04;100.00
36014;BME280;22275;43.208;27.620;2023-05-03T14:23:19;101881.84;;;21.93;100.00
36014;BME280;22275;43.208;27.620;2023-05-03T14:25:46;101901.41;;;22.33;100.00
36014;BME280;22275;43.208;27.620;2023-05-03T14:28:15;101900.28;;;22.26;100.00
36014;BME280;22275;43.208;27.620;2023-05-03T14:30:42;101909.94;;;22.39;100.00
36014;BME280;22275;43.208;27.620;2023-05-03T14:33:09;101923.06;;;21.92;100.00
36014;BME280;22275;43.208;27.620;2023-05-03T14:35:37;101902.25;;;22.24;100.00
36014;BME280;22275;43.208;27.620;2023-05-03T14:38:04;101918.13;;;21.88;100.00
36014;BME280;22275;43.208;27.620;2023-05-03T14:40:32;101918.66;;;21.61;100.00
36014;BME280;22275;43.208;27.620;2023-05-03T14:43:01;101882.19;;;21.79;100.00
36014;BME280;22275;43.208;27.620;2023-05-03T14:45:29;101898.31;;;22.19;100.00
36014;BME280;22275;43.208;27.620;2023-05-03T14:47:57;101894.56;;;21.70;100.00
36014;BME280;22275;43.208;27.620;2023-05-03T14:50:30;101879.56;;;21.38;100.00
36014;BME280;22275;43.208;27.620;2023-05-03T14:53:02;101878.06;;;21.45;100.00
36014;BME280;22275;43.208;27.620;2023-05-03T14:55:29;101884.97;;;21.98;100.00
36014;BME280;22275;43.208;27.620;2023-05-03T14:57:57;101890.78;;;22.22;100.00
36014;BME280;22275;43.208;27.620;2023-05-03T15:00:24;101911.75;;;21.89;100.00
36014;BME280;22275;43.208;27.620;2023-05-03T15:02:53;101911.25;;;22.04;100.00
36014;BME280;22275;43.208;27.620;2023-05-03T15:05:21;101914.50;;;21.77;100.00
36014;BME280;22275;43.208;27.620;2023-05-03T15:07:48;101915.88;;;21.72;100.00
36014;BME280;22275;43.208;27.620;2023-05-03T15:10:16;101893.28;;;21.95;100.00
36014;BME280;22275;43.208;27.620;2023-05-03T15:12:44;101917.06;;;21.79;100.00
36014;BME280;22275;43.208;27.620;2023-05-03T15:15:12;101918.44;;;21.73;100.00
36014;BME280;22275;43.208;27.620;2023-05-03T15:17:40;101916.44;;;21.96;100.00
36014;BME280;22275;43.208;27.620;2023-05-03T15:20:10;101910.34;;;21.94;100.00
36014;BME280;22275;43.208;27.620;2023-05-03T15:22:39;101896.31;;;21.81;100.00
36014;BME280;22275;43.208;27.620;2023-05-03T15:25:07;101894.16;;;21.45;100.00
36014;BME280;22275;43.208;27.620;2023-05-03T15:27:35;101874.59;;;21.54;100.00
36014;BME280;22275;43.208;27.620;2023-05-03T15:30:02;101881.28;;;21.39;100.00
36014;BME280;22275;43.208;27.620;2023-05-03T15:32:30;101864.81;;;21.83;100.00
36014;BME280;22275;43.208;27.620;2023-05-03T15:34:57;101875.84;;;21.50;100.00
36014;BME280;22275;43.208;27.620;2023-05-03T15:37:32;101859.47;;;21.23;100.00
36014;BME280;22275;43.208;27.620;2023-05-03T15:40:02;101853.75;;;21.67;100.00
36014;BME280;22275;43.208;27.620;2023-05-03T15:42:30;101857.22;;;21.07;100.00
36014;BME280;22275;43.208;27.620;2023-05-03T15:44:57;101858.47;;;20.82;100.00
36014;BME280;22275;43.208;27.620;2023-05-03T15:47:24;101856.03;;;21.41;100.00
36014;BME280;22275;43.208;27.620;2023-05-03T15:49:51;101860.81;;;21.68;100.00
36014;BME280;22275;43.208;27.620;2023-05-03T15:52:19;101849.66;;;21.12;100.00
36014;BME280;22275;43.208;27.620;2023-05-03T15:54:48;101832.94;;;21.19;100.00
36014;BME280;22275;43.208;27.620;2023-05-03T15:57:16;101825.53;;;21.12;100.00
36014;BME280;22275;43.208;27.620;2023-05-03T15:59:43;101814.00;;;21.11;100.00
36014;BME280;22275;43.208;27.620;2023-05-03T16:04:43;101819.25;;;20.81;100.00
36014;BME280;22275;43.208;27.620;2023-05-03T16:07:10;101822.66;;;20.83;100.00
36014;BME280;22275;43.208;27.620;2023-05-03T16:09:38;101818.53;;;20.58;100.00
36014;BME280;22275;43.208;27.620;2023-05-03T16:12:07;101815.72;;;19.85;100.00
36014;BME280;22275;43.208;27.620;2023-05-03T16:14:34;101791.44;;;20.20;100.00
36014;BME280;22275;43.208;27.620;2023-05-03T16:17:01;101805.91;;;20.29;100.00
36014;BME280;22275;43.208;27.620;2023-05-03T16:19:28;101787.38;;;20.78;100.00
36014;BME280;22275;43.208;27.620;2023-05-03T16:21:56;101791.97;;;20.46;100.00
36014;BME280;22275;43.208;27.620;2023-05-03T16:24:23;101784.81;;;19.92;100.00
36014;BME280;22275;43.208;27.620;2023-05-03T16:27:11;101790.47;;;19.56;100.00
36014;BME280;22275;43.208;27.620;2023-05-03T16:29:38;101769.03;;;19.78;100.00
36014;BME280;22275;43.208;27.620;2023-05-03T16:32:05;101776.47;;;20.18;100.00
36014;BME280;22275;43.208;27.620;2023-05-03T16:34:34;101783.50;;;19.76;100.00
36014;BME280;22275;43.208;27.620;2023-05-03T16:37:02;101798.94;;;19.83;100.00
36014;BME280;22275;43.208;27.620;2023-05-03T16:39:29;101812.03;;;19.97;100.00
36014;BME280;22275;43.208;27.620;2023-05-03T16:41:57;101801.06;;;19.58;100.00
36014;BME280;22275;43.208;27.620;2023-05-03T16:44:26;101812.06;;;19.75;100.00
36014;BME280;22275;43.208;27.620;2023-05-03T16:46:53;101808.31;;;19.44;100.00
36014;BME280;22275;43.208;27.620;2023-05-03T16:49:21;101790.94;;;19.28;100.00
36014;BME280;22275;43.208;27.620;2023-05-03T16:51:48;101820.84;;;19.55;100.00
36014;BME280;22275;43.208;27.620;2023-05-03T16:54:16;101817.06;;;19.80;100.00
36014;BME280;22275;43.208;27.620;2023-05-03T16:56:43;101792.78;;;19.38;100.00
36014;BME280;22275;43.208;27.620;2023-05-03T16:59:11;101796.28;;;19.17;100.00
36014;BME280;22275;43.208;27.620;2023-05-03T17:01:39;101799.44;;;19.33;100.00
36014;BME280;22275;43.208;27.620;2023-05-03T17:04:07;101775.91;;;19.49;100.00
36014;BME280;22275;43.208;27.620;2023-05-03T17:06:34;101784.56;;;19.95;100.00
36014;BME280;22275;43.208;27.620;2023-05-03T17:09:02;101774.53;;;20.20;100.00
36014;BME280;22275;43.208;27.620;2023-05-03T17:11:29;101776.00;;;20.13;100.00
36014;BME280;22275;43.208;27.620;2023-05-03T17:13:57;101763.00;;;19.65;100.00
36014;BME280;22275;43.208;27.620;2023-05-03T17:16:47;101799.09;;;19.48;100.00
36014;BME280;22275;43.208;27.620;2023-05-03T17:19:15;101792.03;;;19.81;100.00
36014;BME280;22275;43.208;27.620;2023-05-03T17:21:44;101793.97;;;20.22;100.00
36014;BME280;22275;43.208;27.620;2023-05-03T17:24:11;101783.44;;;19.44;100.00
36014;BME280;22275;43.208;27.620;2023-05-03T17:26:43;101777.69;;;20.14;100.00
36014;BME280;22275;43.208;27.620;2023-05-03T17:29:10;101786.44;;;19.73;100.00
36014;BME280;22275;43.208;27.620;2023-05-03T17:31:37;101806.03;;;19.40;100.00
36014;BME280;22275;43.208;27.620;2023-05-03T17:34:06;101798.00;;;19.51;100.00
36014;BME280;22275;43.208;27.620;2023-05-03T17:36:33;101802.63;;;19.60;100.00
36014;BME280;22275;43.208;27.620;2023-05-03T17:39:01;101799.72;;;19.41;100.00
36014;BME280;22275;43.208;27.620;2023-05-03T17:41:29;101799.72;;;19.63;100.00
36014;BME280;22275;43.208;27.620;2023-05-03T17:43:56;101808.91;;;19.70;100.00
36014;BME280;22275;43.208;27.620;2023-05-03T17:46:23;101795.47;;;19.61;100.00
36014;BME280;22275;43.208;27.620;2023-05-03T17:48:51;101816.00;;;19.49;100.00
36014;BME280;22275;43.208;27.620;2023-05-03T17:51:20;101821.50;;;20.01;100.00
36014;BME280;22275;43.208;27.620;2023-05-03T17:53:47;101833.09;;;19.80;100.00
36014;BME280;22275;43.208;27.620;2023-05-03T17:56:17;101844.91;;;19.77;100.00
36014;BME280;22275;43.208;27.620;2023-05-03T17:58:44;101842.22;;;19.88;100.00
36014;BME280;22275;43.208;27.620;2023-05-03T18:01:13;101850.72;;;19.82;100.00
36014;BME280;22275;43.208;27.620;2023-05-03T18:03:41;101856.66;;;19.97;100.00
36014;BME280;22275;43.208;27.620;2023-05-03T18:06:09;101855.94;;;19.84;100.00
36014;BME280;22275;43.208;27.620;2023-05-03T18:08:39;101871.81;;;20.19;100.00
36014;BME280;22275;43.208;27.620;2023-05-03T18:11:09;101878.53;;;19.91;100.00
36014;BME280;22275;43.208;27.620;2023-05-03T18:13:36;101874.91;;;19.92;100.00
36014;BME280;22275;43.208;27.620;2023-05-03T18:16:05;101875.69;;;20.37;100.00
36014;BME280;22275;43.208;27.620;2023-05-03T18:18:48;101874.97;;;20.13;100.00
36014;BME280;22275;43.208;27.620;2023-05-03T18:21:15;101879.47;;;20.23;100.00
36014;BME280;22275;43.208;27.620;2023-05-03T18:23:45;101877.59;;;20.78;100.00
36014;BME280;22275;43.208;27.620;2023-05-03T18:26:12;101872.53;;;20.63;100.00
36014;BME280;22275;43.208;27.620;2023-05-03T18:28:39;101896.03;;;20.17;100.00
36014;BME280;22275;43.208;27.620;2023-05-03T18:31:07;101883.13;;;20.11;100.00
36014;BME280;22275;43.208;27.620;2023-05-03T18:33:36;101854.41;;;20.24;100.00
36014;BME280;22275;43.208;27.620;2023-05-03T18:36:05;101893.72;;;20.35;100.00
36014;BME280;22275;43.208;27.620;2023-05-03T18:38:36;101892.03;;;20.66;100.00
36014;BME280;22275;43.208;27.620;2023-05-03T18:41:07;101886.66;;;20.12;100.00